createdAt,value
2022-08-19T00:02:16.583Z,100081.47
2022-08-19T00:05:38.493Z,100082.22
2022-08-19T00:08:07.115Z,100067.31
2022-08-19T00:10:36.003Z,100049.03
2022-08-19T00:13:05.339Z,100125.22
2022-08-19T00:15:34.012Z,100118.13
2022-08-19T00:18:04.165Z,100109.22
2022-08-19T00:20:41.420Z,100116.44
2022-08-19T00:23:10.603Z,100083.16
2022-08-19T00:25:39.175Z,100082.41
2022-08-19T00:28:08.108Z,100062.94
2022-08-19T00:30:41.027Z,100079.91
2022-08-19T00:33:12.885Z,100014.44
2022-08-19T00:35:41.602Z,100107.59
2022-08-19T00:38:10.193Z,100113.50
2022-08-19T00:40:43.489Z,100106.22
2022-08-19T00:43:15.360Z,100077.13
2022-08-19T00:45:44.826Z,100115.47
2022-08-19T00:48:17.604Z,100063.75
2022-08-19T00:51:04.675Z,100073.72
2022-08-19T00:53:35.657Z,100129.84
2022-08-19T00:56:07.451Z,100122.59
2022-08-19T00:58:37.402Z,100107.06
2022-08-19T01:01:08.881Z,100122.69
2022-08-19T01:03:57.127Z,100088.44
2022-08-19T01:06:31.011Z,100104.97
2022-08-19T01:08:59.603Z,100076.06
2022-08-19T01:11:29.716Z,100075.16
2022-08-19T01:13:58.719Z,100090.94
2022-08-19T01:16:30.731Z,100129.72
2022-08-19T01:19:00.711Z,100093.28
2022-08-19T01:21:35.301Z,100096.81
2022-08-19T01:24:05.830Z,100146.72
2022-08-19T01:26:42.787Z,100140.34
2022-08-19T01:29:13.774Z,100141.72
2022-08-19T01:31:43.651Z,100077.72
2022-08-19T01:34:37.948Z,100131.72
2022-08-19T01:37:12.661Z,100099.09
2022-08-19T01:39:43.518Z,100128.25
2022-08-19T01:42:13.762Z,100109.19
2022-08-19T01:44:43.081Z,100086.50
2022-08-19T01:47:11.784Z,100082.78
2022-08-19T01:49:40.714Z,100125.16
2022-08-19T01:52:09.543Z,100094.78
2022-08-19T01:54:38.802Z,100097.72
2022-08-19T01:57:24.525Z,100050.78
2022-08-19T01:59:53.225Z,100115.28
2022-08-19T02:02:22.732Z,100117.53
2022-08-19T02:04:51.415Z,100058.94
2022-08-19T02:07:22.733Z,100099.78
2022-08-19T02:09:51.330Z,100119.34
2022-08-19T02:12:21.889Z,100073.09
2022-08-19T02:14:50.491Z,100076.28
2022-08-19T02:17:19.412Z,100118.56
2022-08-19T02:19:50.147Z,100109.00
2022-08-19T02:22:18.641Z,100113.69
2022-08-19T02:24:47.634Z,100066.69
2022-08-19T02:27:16.285Z,100064.88
2022-08-19T02:29:47.698Z,100067.97
2022-08-19T02:32:16.279Z,100060.34
2022-08-19T02:34:54.987Z,100113.44
2022-08-19T02:37:41.050Z,100073.25
2022-08-19T02:40:12.268Z,100113.88
2022-08-19T02:42:42.010Z,100115.28
2022-08-19T02:45:12.473Z,100039.50
2022-08-19T02:47:41.257Z,100042.84
2022-08-19T02:50:10.647Z,100122.31
2022-08-19T02:52:39.358Z,100046.47
2022-08-19T02:55:09.462Z,100086.41
2022-08-19T02:57:38.056Z,100089.47
2022-08-19T03:00:08.951Z,100118.31
2022-08-19T03:02:38.901Z,100073.66
2022-08-19T03:05:10.593Z,100115.53
2022-08-19T03:07:39.761Z,100069.94
2022-08-19T03:10:09.662Z,100052.34
2022-08-19T03:12:39.692Z,100069.00
2022-08-19T03:15:10.342Z,100081.19
2022-08-19T03:17:40.338Z,100105.03
2022-08-19T03:20:09.980Z,100033.81
2022-08-19T03:22:43.299Z,100123.66
2022-08-19T03:25:13.126Z,100131.97
2022-08-19T03:27:41.730Z,100103.69
2022-08-19T03:30:12.168Z,100124.47
2022-08-19T03:32:45.523Z,100127.97
2022-08-19T03:35:14.446Z,100130.34
2022-08-19T03:37:43.303Z,100102.59
2022-08-19T03:40:16.400Z,100124.94
2022-08-19T03:42:49.192Z,100134.50
2022-08-19T03:45:18.238Z,100136.34
2022-08-19T03:47:48.251Z,100094.16
2022-08-19T03:50:17.442Z,100140.91
2022-08-19T03:52:51.488Z,100098.13
2022-08-19T03:55:20.393Z,100088.97
2022-08-19T03:57:49.706Z,100093.16
2022-08-19T04:00:19.131Z,100150.75
2022-08-19T04:03:21.286Z,100149.78
2022-08-19T04:05:51.418Z,100136.47
2022-08-19T04:08:21.460Z,100109.50
2022-08-19T04:10:50.523Z,100118.38
2022-08-19T04:13:20.875Z,100107.16
2022-08-19T04:15:49.462Z,100098.13
2022-08-19T04:18:18.724Z,100155.06
2022-08-19T04:20:49.863Z,100153.41
2022-08-19T04:23:20.175Z,100101.75
2022-08-19T04:25:49.873Z,100112.81
2022-08-19T04:28:18.825Z,100128.63
2022-08-19T04:30:50.229Z,100116.41
2022-08-19T04:33:26.495Z,100156.63
2022-08-19T04:35:59.344Z,100134.84
2022-08-19T04:38:29.287Z,100143.31
2022-08-19T04:41:15.468Z,100131.81
2022-08-19T04:43:49.567Z,100130.56
2022-08-19T04:46:28.585Z,100121.69
2022-08-19T04:49:13.148Z,100154.97
2022-08-19T04:51:44.360Z,100161.06
2022-08-19T04:54:14.637Z,100110.66
2022-08-19T04:56:47.788Z,100172.13
2022-08-19T04:59:17.095Z,100181.72
2022-08-19T05:01:50.598Z,100178.25
2022-08-19T05:04:22.081Z,100135.31
2022-08-19T05:06:51.793Z,100149.81
2022-08-19T05:09:22.747Z,100146.34
2022-08-19T05:11:53.977Z,100168.84
2022-08-19T05:14:23.104Z,100128.00
2022-08-19T05:17:02.439Z,100123.53
2022-08-19T05:19:57.414Z,100114.88
2022-08-19T05:22:35.818Z,100138.72
2022-08-19T05:25:13.344Z,100180.16
2022-08-19T05:27:42.533Z,100159.00
2022-08-19T05:30:12.230Z,100174.97
2022-08-19T05:32:41.284Z,100174.28
2022-08-19T05:35:11.678Z,100142.63
2022-08-19T05:37:41.667Z,100157.88
2022-08-19T05:40:12.952Z,100207.72
2022-08-19T05:42:41.627Z,100139.78
2022-08-19T05:45:11.902Z,100183.97
2022-08-19T05:47:42.456Z,100200.19
2022-08-19T05:50:11.649Z,100207.13
2022-08-19T05:52:43.729Z,100203.09
2022-08-19T05:55:25.013Z,100195.94
2022-08-19T05:57:53.579Z,100217.88
2022-08-19T06:00:24.712Z,100187.06
2022-08-19T06:02:53.704Z,100221.41
2022-08-19T06:05:22.735Z,100179.47
2022-08-19T06:07:51.293Z,100212.53
2022-08-19T06:10:21.664Z,100166.13
2022-08-19T06:12:50.592Z,100213.50
2022-08-19T06:15:19.134Z,100184.63
2022-08-19T06:17:47.757Z,100233.56
2022-08-19T06:20:34.411Z,100176.25
2022-08-19T06:23:07.692Z,100240.81
2022-08-19T06:25:38.118Z,100189.88
2022-08-19T06:28:15.399Z,100234.53
2022-08-19T06:30:44.456Z,100189.28
2022-08-19T06:33:12.978Z,100230.13
2022-08-19T06:35:41.967Z,100237.13
2022-08-19T06:38:11.000Z,100249.47
2022-08-19T06:40:41.037Z,100202.75
2022-08-19T06:43:09.731Z,100218.31
2022-08-19T06:45:39.876Z,100200.66
2022-08-19T06:48:08.502Z,100247.38
2022-08-19T06:50:39.721Z,100207.59
2022-08-19T06:53:09.897Z,100219.31
2022-08-19T06:55:38.711Z,100253.22
2022-08-19T06:58:08.970Z,100226.75
2022-08-19T07:00:37.781Z,100260.56
2022-08-19T07:03:08.761Z,100223.25
2022-08-19T07:05:45.281Z,100251.00
2022-08-19T07:08:14.915Z,100247.97
2022-08-19T07:10:45.978Z,100244.63
2022-08-19T07:13:16.303Z,100262.78
2022-08-19T07:15:47.515Z,100261.13
2022-08-19T07:18:16.097Z,100270.84
2022-08-19T07:20:45.768Z,100217.91
2022-08-19T07:23:16.120Z,100239.28
2022-08-19T07:25:52.877Z,100241.00
2022-08-19T07:28:25.037Z,100270.34
2022-08-19T07:30:56.223Z,100247.69
2022-08-19T07:33:25.050Z,100276.09
2022-08-19T07:35:56.711Z,100259.78
2022-08-19T07:38:25.458Z,100270.25
2022-08-19T07:40:54.998Z,100288.00
2022-08-19T07:43:34.958Z,100282.88
2022-08-19T07:46:04.186Z,100284.88
2022-08-19T07:48:33.674Z,100242.19
2022-08-19T07:51:09.247Z,100285.34
2022-08-19T07:53:39.877Z,100279.91
2022-08-19T07:56:10.299Z,100257.38
2022-08-19T07:58:42.886Z,100258.13
2022-08-19T08:01:14.681Z,100242.78
2022-08-19T08:04:00.808Z,100261.78
2022-08-19T08:06:50.978Z,100278.50
2022-08-19T08:09:23.265Z,100242.28
2022-08-19T08:12:01.903Z,100259.28
2022-08-19T08:14:38.499Z,100285.19
2022-08-19T08:17:13.780Z,100215.78
2022-08-19T08:19:43.452Z,100242.16
2022-08-19T08:22:35.011Z,100272.56
2022-08-19T08:25:06.667Z,100243.47
2022-08-19T08:27:40.669Z,100274.63
2022-08-19T08:30:13.162Z,100246.88
2022-08-19T08:32:44.095Z,100278.28
2022-08-19T08:35:16.651Z,100264.00
2022-08-19T08:37:45.774Z,100244.34
2022-08-19T08:40:21.184Z,100262.13
2022-08-19T08:45:42.490Z,100267.72
2022-08-19T08:48:22.229Z,100229.22
2022-08-19T08:50:57.017Z,100265.94
2022-08-19T08:53:31.061Z,100271.06
2022-08-19T08:56:04.418Z,100232.31
2022-08-19T08:58:46.887Z,100226.78
2022-08-19T09:01:17.364Z,100231.75
2022-08-19T09:03:47.323Z,100239.91
2022-08-19T09:06:26.107Z,100223.47
2022-08-19T09:09:11.773Z,100216.84
2022-08-19T09:11:59.736Z,100211.00
2022-08-19T09:14:51.259Z,100209.31
2022-08-19T09:17:32.263Z,100177.81
2022-08-19T09:20:05.983Z,100247.00
2022-08-19T09:22:40.302Z,100236.28
2022-08-19T09:25:11.417Z,100239.06
2022-08-19T09:27:43.627Z,100211.94
2022-08-19T09:30:22.920Z,100204.53
2022-08-19T09:33:03.166Z,100226.19
2022-08-19T09:35:32.467Z,100255.81
2022-08-19T09:38:18.976Z,100175.53
2022-08-19T09:40:47.670Z,100253.22
2022-08-19T09:43:33.981Z,100207.09
2022-08-19T09:46:10.534Z,100239.09
2022-08-19T09:48:45.680Z,100177.56
2022-08-19T09:51:18.494Z,100203.38
2022-08-19T09:53:55.109Z,100211.03
2022-08-19T09:56:29.915Z,100199.03
2022-08-19T09:59:08.341Z,100171.66
2022-08-19T10:01:37.308Z,100197.25
2022-08-19T10:04:14.797Z,100173.47
2022-08-19T10:06:58.308Z,100203.56
2022-08-19T10:09:34.264Z,100211.28
2022-08-19T10:12:06.188Z,100180.66
2022-08-19T10:14:35.748Z,100210.38
2022-08-19T10:17:19.210Z,100227.44
2022-08-19T10:19:55.096Z,100231.00
2022-08-19T10:22:25.655Z,100186.81
2022-08-19T10:24:55.352Z,100175.06
2022-08-19T10:27:24.267Z,100143.34
2022-08-19T10:29:58.010Z,100134.75
2022-08-19T10:32:34.353Z,100226.19
2022-08-19T10:35:09.494Z,100134.63
2022-08-19T10:37:57.635Z,100174.06
2022-08-19T10:40:29.703Z,100151.78
2022-08-19T10:43:03.202Z,100139.19
2022-08-19T10:45:32.185Z,100194.72
2022-08-19T10:48:06.795Z,100153.22
2022-08-19T10:51:00.120Z,100146.47
2022-08-19T10:53:28.948Z,100157.22
2022-08-19T10:56:15.146Z,100145.47
2022-08-19T10:58:45.745Z,100169.06
2022-08-19T11:01:14.637Z,100133.91
2022-08-19T11:03:43.384Z,100187.91
2022-08-19T11:06:22.879Z,100118.78
2022-08-19T11:08:51.623Z,100122.22
2022-08-19T11:11:20.446Z,100096.06
2022-08-19T11:13:51.024Z,100172.19
2022-08-19T11:16:22.680Z,100094.34
2022-08-19T11:18:53.400Z,100114.09
2022-08-19T11:21:26.067Z,100095.81
2022-08-19T11:23:57.395Z,100136.19
2022-08-19T11:26:27.242Z,100113.81
2022-08-19T11:28:56.764Z,100134.78
2022-08-19T11:31:29.023Z,100090.94
2022-08-19T11:34:00.859Z,100115.53
2022-08-19T11:36:32.516Z,100113.94
2022-08-19T11:39:01.212Z,100078.44
2022-08-19T11:41:29.927Z,100129.47
2022-08-19T11:43:58.795Z,100079.88
2022-08-19T11:46:30.690Z,100093.94
2022-08-19T11:49:00.617Z,100154.03
2022-08-19T11:54:34.865Z,100116.94
2022-08-19T11:57:05.042Z,100123.25
2022-08-19T11:59:34.148Z,100058.88
2022-08-19T12:02:02.973Z,100100.09
2022-08-19T12:04:31.788Z,100136.78
2022-08-19T12:07:03.008Z,100048.59
2022-08-19T12:12:55.794Z,100104.63
2022-08-19T12:15:38.244Z,100074.66
2022-08-19T12:18:07.536Z,100089.53
2022-08-19T12:20:38.212Z,100121.00
2022-08-19T12:23:10.558Z,100040.88
2022-08-19T12:25:40.142Z,100116.28
2022-08-19T12:28:08.878Z,100026.16
2022-08-19T12:30:40.260Z,100052.97
2022-08-19T12:33:09.033Z,100051.81
2022-08-19T12:35:37.842Z,100051.00
2022-08-19T12:38:07.973Z,100094.03
2022-08-19T12:40:36.671Z,100011.09
2022-08-19T12:43:05.490Z,100091.59
2022-08-19T12:45:37.493Z,100012.28
2022-08-19T12:48:33.935Z,100086.97
2022-08-19T12:50:55.797Z,100082.03
2022-08-19T12:53:26.856Z,100038.97
2022-08-19T12:56:23.238Z,100089.09
2022-08-19T12:58:53.260Z,100046.66
2022-08-19T13:01:23.586Z,100070.66
2022-08-19T13:03:54.410Z,100079.91
2022-08-19T13:06:45.656Z,100076.34
2022-08-19T13:09:50.781Z,100035.28
2022-08-19T13:12:25.493Z,100060.31
2022-08-19T13:14:54.132Z,100064.66
2022-08-19T13:17:23.307Z,100060.47
2022-08-19T13:19:52.724Z,100059.63
2022-08-19T13:22:21.512Z,99980.44
2022-08-19T13:24:52.664Z,100016.81
2022-08-19T13:27:21.363Z,99961.69
2022-08-19T13:30:13.028Z,100013.19
2022-08-19T13:32:58.789Z,100012.13
2022-08-19T13:35:27.563Z,99988.94
2022-08-19T13:37:56.270Z,100047.22
2022-08-19T13:40:28.104Z,99989.53
2022-08-19T13:42:57.415Z,100022.19
2022-08-19T13:45:27.094Z,100016.50
2022-08-19T13:47:59.720Z,99990.91
2022-08-19T13:50:32.376Z,100016.75
2022-08-19T13:53:02.651Z,99991.19
2022-08-19T13:55:33.017Z,99992.63
2022-08-19T13:58:03.116Z,100028.06
2022-08-19T14:00:35.189Z,99992.72
2022-08-19T14:03:09.127Z,99977.25
2022-08-19T14:05:38.511Z,99998.25
2022-08-19T14:08:07.855Z,99965.03
2022-08-19T14:10:37.888Z,100009.69
2022-08-19T14:13:06.571Z,100011.31
2022-08-19T14:15:35.513Z,99986.25
2022-08-19T14:18:04.463Z,99986.00
2022-08-19T14:20:35.790Z,99942.72
2022-08-19T14:23:06.240Z,99974.81
2022-08-19T14:25:35.407Z,99921.53
2022-08-19T14:28:05.884Z,99965.03
2022-08-19T14:30:38.859Z,99978.66
2022-08-19T14:33:09.514Z,99982.75
2022-08-19T14:35:38.742Z,99974.31
2022-08-19T14:38:09.201Z,99940.03
2022-08-19T14:40:38.026Z,99972.09
2022-08-19T14:43:08.051Z,99970.19
2022-08-19T14:45:41.050Z,99883.47
2022-08-19T14:48:19.497Z,99919.63
2022-08-19T14:50:49.147Z,99956.34
2022-08-19T14:53:18.632Z,99905.75
2022-08-19T14:55:48.189Z,99909.81
2022-08-19T14:58:28.358Z,99923.13
2022-08-19T15:01:01.247Z,99943.25
2022-08-19T15:03:32.741Z,99941.59
2022-08-19T15:06:02.988Z,99898.09
2022-08-19T15:08:33.419Z,99935.63
2022-08-19T15:11:03.129Z,99926.38
2022-08-19T15:13:33.107Z,99933.47
2022-08-19T15:16:03.626Z,99932.41
2022-08-19T15:18:32.148Z,99906.03
2022-08-19T15:21:01.550Z,99931.31
2022-08-19T15:23:30.234Z,99867.13
2022-08-19T15:25:58.808Z,99903.56
2022-08-19T15:28:27.952Z,99901.94
2022-08-19T15:30:57.905Z,99893.22
2022-08-19T15:33:27.134Z,99904.91
2022-08-19T15:35:55.775Z,99860.63
2022-08-19T15:38:26.076Z,99910.31
2022-08-19T15:41:15.267Z,99861.41
2022-08-19T15:43:44.615Z,99876.88
2022-08-19T15:46:16.921Z,99904.88
2022-08-19T15:48:51.459Z,99879.63
2022-08-19T15:51:26.596Z,99902.47
2022-08-19T15:53:55.539Z,99901.63
2022-08-19T15:56:27.205Z,99829.88
2022-08-19T15:59:25.432Z,99899.19
2022-08-19T16:02:13.156Z,99851.88
2022-08-19T16:04:59.262Z,99892.63
2022-08-19T16:07:27.874Z,99829.03
2022-08-19T16:09:56.501Z,99887.75
2022-08-19T16:12:30.520Z,99827.97
2022-08-19T16:14:59.186Z,99863.03
2022-08-19T16:17:29.261Z,99877.44
2022-08-19T16:19:57.827Z,99836.66
2022-08-19T16:22:31.304Z,99844.84
2022-08-19T16:25:00.404Z,99863.06
2022-08-19T16:27:29.231Z,99845.63
2022-08-19T16:29:58.044Z,99875.81
2022-08-19T16:32:27.077Z,99871.75
2022-08-19T16:34:57.089Z,99848.88
2022-08-19T16:37:25.704Z,99888.31
2022-08-19T16:39:54.621Z,99847.47
2022-08-19T16:42:23.172Z,99869.78
2022-08-19T16:44:51.732Z,99883.03
2022-08-19T16:47:20.302Z,99845.91
2022-08-19T16:49:52.934Z,99882.94
2022-08-19T16:52:27.356Z,99848.31
2022-08-19T16:54:56.761Z,99821.53
2022-08-19T16:57:25.309Z,99883.56
2022-08-19T16:59:54.082Z,99879.31
2022-08-19T17:02:25.580Z,99813.13
2022-08-19T17:04:59.545Z,99840.03
2022-08-19T17:07:33.261Z,99835.94
2022-08-19T17:10:03.247Z,99834.53
2022-08-19T17:12:32.662Z,99883.34
2022-08-19T17:15:02.713Z,99886.00
2022-08-19T17:17:32.379Z,99877.84
2022-08-19T17:20:02.711Z,99870.66
2022-08-19T17:22:32.751Z,99838.00
2022-08-19T17:25:01.713Z,99829.00
2022-08-19T17:27:32.359Z,99880.34
2022-08-19T17:30:03.556Z,99878.63
2022-08-19T17:32:35.276Z,99868.81
2022-08-19T17:35:04.781Z,99859.69
2022-08-19T17:37:35.184Z,99874.66
2022-08-19T17:40:04.458Z,99828.56
2022-08-19T17:42:33.125Z,99856.44
2022-08-19T17:45:01.804Z,99882.63
2022-08-19T17:47:31.413Z,99840.59
2022-08-19T17:49:59.993Z,99847.41
2022-08-19T17:52:28.621Z,99845.75
2022-08-19T17:54:58.594Z,99853.44
2022-08-19T17:57:27.467Z,99885.63
2022-08-19T17:59:56.125Z,99852.22
2022-08-19T18:02:26.566Z,99892.97
2022-08-19T18:04:58.878Z,99882.50
2022-08-19T18:07:27.386Z,99860.59
2022-08-19T18:09:55.875Z,99864.91
2022-08-19T18:12:27.799Z,99830.94
2022-08-19T18:14:56.383Z,99857.88
2022-08-19T18:17:26.170Z,99867.88
2022-08-19T18:19:54.995Z,99898.38
2022-08-19T18:22:26.862Z,99867.59
2022-08-19T18:24:57.289Z,99864.78
2022-08-19T18:27:28.382Z,99873.16
2022-08-19T18:29:59.917Z,99903.78
2022-08-19T18:32:31.727Z,99882.28
2022-08-19T18:35:02.512Z,99862.38
2022-08-19T18:37:31.074Z,99909.47
2022-08-19T18:40:17.218Z,99857.94
2022-08-19T18:43:06.416Z,99878.94
2022-08-19T18:45:52.539Z,99884.59
2022-08-19T18:48:38.680Z,99840.31
2022-08-19T18:51:09.036Z,99858.47
2022-08-19T18:53:42.073Z,99863.97
2022-08-19T18:56:13.463Z,99879.09
2022-08-19T18:58:44.773Z,99871.84
2022-08-19T19:01:16.643Z,99864.59
2022-08-19T19:03:47.867Z,99919.91
2022-08-19T19:06:19.492Z,99921.53
2022-08-19T19:08:48.465Z,99903.25
2022-08-19T19:11:23.819Z,99938.19
2022-08-19T19:13:54.072Z,99895.22
2022-08-19T19:16:24.676Z,99937.84
2022-08-19T19:18:53.683Z,99870.28
2022-08-19T19:21:23.412Z,99903.75
2022-08-19T19:23:53.150Z,99910.63
2022-08-19T19:26:22.087Z,99911.72
2022-08-19T19:28:51.527Z,99918.59
2022-08-19T19:31:25.796Z,99943.22
2022-08-19T19:33:54.783Z,99909.94
2022-08-19T19:36:23.848Z,99908.41
2022-08-19T19:38:53.138Z,99914.75
2022-08-19T19:41:24.748Z,99914.78
2022-08-19T19:44:16.488Z,99953.97
2022-08-19T19:46:44.447Z,99908.97
2022-08-19T19:49:13.340Z,99909.50
2022-08-19T19:51:43.486Z,99963.72
2022-08-19T19:54:14.065Z,99959.69
2022-08-19T19:56:45.180Z,99959.66
2022-08-19T19:59:14.173Z,99918.84
2022-08-19T20:01:46.872Z,99971.13
2022-08-19T20:04:16.249Z,99947.50
2022-08-19T20:06:46.393Z,99975.66
2022-08-19T20:09:19.528Z,99924.16
2022-08-19T20:11:53.527Z,99936.91
2022-08-19T20:14:24.920Z,99978.59
2022-08-19T20:16:56.434Z,99936.47
2022-08-19T20:19:27.382Z,99978.66
2022-08-19T20:21:57.645Z,99950.81
2022-08-19T20:24:28.326Z,99991.59
2022-08-19T20:26:56.940Z,99952.50
2022-08-19T20:29:39.183Z,99977.25
2022-08-19T20:32:11.811Z,99991.25
2022-08-19T20:34:41.786Z,99991.25
2022-08-19T20:37:10.400Z,99948.25
2022-08-19T20:39:39.332Z,99998.72
2022-08-19T20:42:08.298Z,99956.72
2022-08-19T20:44:37.926Z,99972.38
2022-08-19T20:47:06.857Z,99985.16
2022-08-19T20:49:37.327Z,99998.75
2022-08-19T20:52:07.123Z,100007.00
2022-08-19T20:54:35.794Z,99964.13
2022-08-19T20:57:05.620Z,100003.47
2022-08-19T20:59:34.553Z,100013.97
2022-08-19T21:02:03.114Z,100012.06
2022-08-19T21:04:31.830Z,100010.59
2022-08-19T21:07:03.520Z,99971.00
2022-08-19T21:09:32.440Z,100025.47
2022-08-19T21:12:01.063Z,99987.66
2022-08-19T21:14:29.650Z,100001.03
2022-08-19T21:16:58.693Z,99979.94
2022-08-19T21:19:27.341Z,100023.25
2022-08-19T21:21:55.913Z,100012.28
2022-08-19T21:24:30.136Z,99982.75
2022-08-19T21:27:00.810Z,99994.00
2022-08-19T21:29:32.190Z,100003.47
2022-08-19T21:32:00.739Z,100039.94
2022-08-19T21:34:29.678Z,99984.75
2022-08-19T21:37:05.004Z,100043.47
2022-08-19T21:39:36.207Z,100043.47
2022-08-19T21:42:05.107Z,99976.97
2022-08-19T21:44:33.704Z,100034.59
2022-08-19T21:47:06.766Z,99971.78
2022-08-19T21:49:39.461Z,99980.88
2022-08-19T21:52:08.691Z,100034.94
2022-08-19T21:54:41.902Z,99999.50
2022-08-19T21:57:13.507Z,100044.13
2022-08-19T21:59:44.209Z,100044.06
2022-08-19T22:02:21.818Z,100011.59
2022-08-19T22:04:51.581Z,100034.63
2022-08-19T22:07:22.521Z,99998.34
2022-08-19T22:09:52.868Z,100031.72
2022-08-19T22:12:25.236Z,99949.13
2022-08-19T22:14:54.789Z,99986.84
2022-08-19T22:17:24.182Z,99990.44
2022-08-19T22:19:53.127Z,100036.16
2022-08-19T22:22:24.410Z,100006.69
2022-08-19T22:24:54.699Z,99979.41
2022-08-19T22:27:23.370Z,100014.78
2022-08-19T22:29:52.496Z,100031.16
2022-08-19T22:32:27.891Z,100005.09
2022-08-19T22:34:59.905Z,99978.75
2022-08-19T22:37:31.927Z,100016.22
2022-08-19T22:40:05.587Z,99977.91
2022-08-19T22:42:34.367Z,100031.44
2022-08-19T22:45:02.905Z,99978.28
2022-08-19T22:47:34.107Z,100029.44
2022-08-19T22:50:04.930Z,100001.97
2022-08-19T22:52:32.530Z,100036.81
2022-08-19T22:55:04.654Z,99997.81
2022-08-19T22:57:33.274Z,99963.81
2022-08-19T23:00:01.953Z,100003.97
2022-08-19T23:02:34.749Z,100007.16
2022-08-19T23:05:04.028Z,99976.16
2022-08-19T23:07:32.869Z,100007.31
2022-08-19T23:10:03.489Z,100001.63
2022-08-19T23:12:38.079Z,100030.78
2022-08-19T23:15:11.281Z,100033.94
2022-08-19T23:17:40.725Z,100041.66
2022-08-19T23:20:11.948Z,99990.00
2022-08-19T23:22:41.853Z,99983.66
2022-08-19T23:25:22.452Z,100035.69
2022-08-19T23:28:09.153Z,100037.06
2022-08-19T23:30:40.769Z,99993.28
2022-08-19T23:33:18.687Z,100021.28
2022-08-19T23:35:47.434Z,99994.69
2022-08-19T23:38:15.959Z,100034.09
2022-08-19T23:40:46.263Z,100013.72
2022-08-19T23:43:20.381Z,99966.81
2022-08-19T23:45:57.481Z,100018.50
2022-08-19T23:48:28.383Z,100008.88
2022-08-19T23:50:58.411Z,100017.16
2022-08-19T23:53:27.510Z,99967.69
2022-08-19T23:55:57.575Z,99979.03
2022-08-19T23:58:30.029Z,99984.34
